sensor_id;sensor_type;location;lat;lon;timestamp;temperature;humidity
51655;DHT22;37732;53.106;7.030;2022-10-31T00:01:14;13.10;99.90
51655;DHT22;37732;53.106;7.030;2022-10-31T00:03:40;13.00;99.90
51655;DHT22;37732;53.106;7.030;2022-10-31T00:06:05;12.90;99.90
51655;DHT22;37732;53.106;7.030;2022-10-31T00:08:31;13.00;99.90
51655;DHT22;37732;53.106;7.030;2022-10-31T00:10:57;13.00;99.90
51655;DHT22;37732;53.106;7.030;2022-10-31T00:13:23;12.70;99.90
51655;DHT22;37732;53.106;7.030;2022-10-31T00:15:50;12.60;99.90
51655;DHT22;37732;53.106;7.030;2022-10-31T00:18:16;12.60;99.90
51655;DHT22;37732;53.106;7.030;2022-10-31T00:20:42;12.60;99.90
51655;DHT22;37732;53.106;7.030;2022-10-31T00:23:09;12.70;99.90
51655;DHT22;37732;53.106;7.030;2022-10-31T00:25:38;12.60;99.90
51655;DHT22;37732;53.106;7.030;2022-10-31T00:28:06;12.60;99.90
51655;DHT22;37732;53.106;7.030;2022-10-31T00:30:32;12.60;99.90
51655;DHT22;37732;53.106;7.030;2022-10-31T00:32:58;12.50;99.90
51655;DHT22;37732;53.106;7.030;2022-10-31T00:40:16;12.40;99.90
51655;DHT22;37732;53.106;7.030;2022-10-31T00:42:42;12.60;99.90
51655;DHT22;37732;53.106;7.030;2022-10-31T00:45:09;12.50;99.90
51655;DHT22;37732;53.106;7.030;2022-10-31T00:47:36;12.50;99.90
51655;DHT22;37732;53.106;7.030;2022-10-31T00:50:03;12.50;99.90
51655;DHT22;37732;53.106;7.030;2022-10-31T00:52:29;12.40;99.90
51655;DHT22;37732;53.106;7.030;2022-10-31T00:54:55;12.70;99.90
51655;DHT22;37732;53.106;7.030;2022-10-31T00:57:21;12.60;99.90
51655;DHT22;37732;53.106;7.030;2022-10-31T00:59:47;12.50;99.90
51655;DHT22;37732;53.106;7.030;2022-10-31T01:02:12;12.50;99.90
51655;DHT22;37732;53.106;7.030;2022-10-31T01:04:38;12.50;99.90
51655;DHT22;37732;53.106;7.030;2022-10-31T01:07:04;12.40;99.90
51655;DHT22;37732;53.106;7.030;2022-10-31T01:09:30;12.40;99.90
51655;DHT22;37732;53.106;7.030;2022-10-31T01:11:56;12.30;99.90
51655;DHT22;37732;53.106;7.030;2022-10-31T01:14:21;12.40;99.90
51655;DHT22;37732;53.106;7.030;2022-10-31T01:16:47;12.20;99.90
51655;DHT22;37732;53.106;7.030;2022-10-31T01:19:12;12.20;99.90
51655;DHT22;37732;53.106;7.030;2022-10-31T01:21:39;12.10;99.90
51655;DHT22;37732;53.106;7.030;2022-10-31T01:24:05;12.20;99.90
51655;DHT22;37732;53.106;7.030;2022-10-31T01:26:32;12.00;99.90
51655;DHT22;37732;53.106;7.030;2022-10-31T01:29:01;12.20;99.90
51655;DHT22;37732;53.106;7.030;2022-10-31T01:31:30;12.00;99.90
51655;DHT22;37732;53.106;7.030;2022-10-31T01:33:56;11.90;99.90
51655;DHT22;37732;53.106;7.030;2022-10-31T01:36:28;11.90;99.90
51655;DHT22;37732;53.106;7.030;2022-10-31T01:39:00;12.10;99.90
51655;DHT22;37732;53.106;7.030;2022-10-31T01:51:19;11.60;99.90
51655;DHT22;37732;53.106;7.030;2022-10-31T01:53:46;11.70;99.90
51655;DHT22;37732;53.106;7.030;2022-10-31T01:56:15;11.60;99.90
51655;DHT22;37732;53.106;7.030;2022-10-31T01:58:42;11.60;99.90
51655;DHT22;37732;53.106;7.030;2022-10-31T02:01:09;11.60;99.90
51655;DHT22;37732;53.106;7.030;2022-10-31T02:03:35;11.60;99.90
51655;DHT22;37732;53.106;7.030;2022-10-31T02:06:03;11.60;99.90
51655;DHT22;37732;53.106;7.030;2022-10-31T02:08:33;11.60;99.90
51655;DHT22;37732;53.106;7.030;2022-10-31T02:11:01;11.60;99.90
51655;DHT22;37732;53.106;7.030;2022-10-31T02:13:28;11.60;99.90
51655;DHT22;37732;53.106;7.030;2022-10-31T02:15:57;11.50;99.90
51655;DHT22;37732;53.106;7.030;2022-10-31T02:18:24;11.50;99.90
51655;DHT22;37732;53.106;7.030;2022-10-31T02:20:57;11.50;99.90
51655;DHT22;37732;53.106;7.030;2022-10-31T02:37:05;11.20;99.90
51655;DHT22;37732;53.106;7.030;2022-10-31T02:50:54;10.90;99.90
51655;DHT22;37732;53.106;7.030;2022-10-31T02:53:21;10.90;99.90
51655;DHT22;37732;53.106;7.030;2022-10-31T02:55:56;10.90;99.90
51655;DHT22;37732;53.106;7.030;2022-10-31T02:58:27;10.90;99.90
51655;DHT22;37732;53.106;7.030;2022-10-31T03:01:04;10.80;99.90
51655;DHT22;37732;53.106;7.030;2022-10-31T03:06:41;10.80;99.90
51655;DHT22;37732;53.106;7.030;2022-10-31T03:09:34;10.80;99.90
51655;DHT22;37732;53.106;7.030;2022-10-31T03:12:08;10.80;99.90
51655;DHT22;37732;53.106;7.030;2022-10-31T03:14:43;10.80;99.90
51655;DHT22;37732;53.106;7.030;2022-10-31T03:17:16;10.80;99.90
51655;DHT22;37732;53.106;7.030;2022-10-31T03:19:47;10.80;99.90
51655;DHT22;37732;53.106;7.030;2022-10-31T03:22:24;10.70;99.90
51655;DHT22;37732;53.106;7.030;2022-10-31T03:24:52;10.70;99.90
51655;DHT22;37732;53.106;7.030;2022-10-31T03:27:26;10.70;99.90
51655;DHT22;37732;53.106;7.030;2022-10-31T03:29:55;10.80;99.90
51655;DHT22;37732;53.106;7.030;2022-10-31T03:32:27;10.70;99.90
51655;DHT22;37732;53.106;7.030;2022-10-31T03:34:58;10.70;99.90
51655;DHT22;37732;53.106;7.030;2022-10-31T03:37:27;11.10;99.90
51655;DHT22;37732;53.106;7.030;2022-10-31T03:39:55;10.70;99.90
51655;DHT22;37732;53.106;7.030;2022-10-31T03:42:25;10.60;99.90
51655;DHT22;37732;53.106;7.030;2022-10-31T03:44:57;10.60;99.90
51655;DHT22;37732;53.106;7.030;2022-10-31T03:47:24;10.50;99.90
51655;DHT22;37732;53.106;7.030;2022-10-31T03:49:50;10.50;99.90
51655;DHT22;37732;53.106;7.030;2022-10-31T03:55:17;10.50;99.90
51655;DHT22;37732;53.106;7.030;2022-10-31T03:57:55;10.40;99.90
51655;DHT22;37732;53.106;7.030;2022-10-31T04:00:23;10.40;99.90
51655;DHT22;37732;53.106;7.030;2022-10-31T04:02:55;10.40;99.90
51655;DHT22;37732;53.106;7.030;2022-10-31T04:05:24;10.40;99.90
51655;DHT22;37732;53.106;7.030;2022-10-31T04:07:53;10.30;99.90
51655;DHT22;37732;53.106;7.030;2022-10-31T04:10:21;10.30;99.90
51655;DHT22;37732;53.106;7.030;2022-10-31T04:12:52;10.30;99.90
51655;DHT22;37732;53.106;7.030;2022-10-31T04:15:20;10.30;99.90
51655;DHT22;37732;53.106;7.030;2022-10-31T04:17:49;10.20;99.90
51655;DHT22;37732;53.106;7.030;2022-10-31T04:20:16;10.10;99.90
51655;DHT22;37732;53.106;7.030;2022-10-31T04:22:42;10.20;99.90
51655;DHT22;37732;53.106;7.030;2022-10-31T04:25:08;10.20;99.90
51655;DHT22;37732;53.106;7.030;2022-10-31T04:27:34;10.10;99.90
51655;DHT22;37732;53.106;7.030;2022-10-31T04:32:26;10.00;99.90
51655;DHT22;37732;53.106;7.030;2022-10-31T04:34:52;10.10;99.90
51655;DHT22;37732;53.106;7.030;2022-10-31T04:37:18;10.00;99.90
51655;DHT22;37732;53.106;7.030;2022-10-31T04:39:44;10.00;99.90
51655;DHT22;37732;53.106;7.030;2022-10-31T04:42:10;10.00;99.90
51655;DHT22;37732;53.106;7.030;2022-10-31T04:44:35;9.90;99.90
51655;DHT22;37732;53.106;7.030;2022-10-31T04:47:02;9.90;99.90
51655;DHT22;37732;53.106;7.030;2022-10-31T04:49:27;9.90;99.90
51655;DHT22;37732;53.106;7.030;2022-10-31T04:51:53;9.80;99.90
51655;DHT22;37732;53.106;7.030;2022-10-31T04:54:18;9.80;99.90
51655;DHT22;37732;53.106;7.030;2022-10-31T04:56:45;9.80;99.90
51655;DHT22;37732;53.106;7.030;2022-10-31T04:59:10;9.80;99.90
51655;DHT22;37732;53.106;7.030;2022-10-31T05:01:36;9.70;99.90
51655;DHT22;37732;53.106;7.030;2022-10-31T05:04:02;9.70;99.90
51655;DHT22;37732;53.106;7.030;2022-10-31T05:06:27;9.70;99.90
51655;DHT22;37732;53.106;7.030;2022-10-31T05:08:53;9.60;99.90
51655;DHT22;37732;53.106;7.030;2022-10-31T05:11:19;9.60;99.90
51655;DHT22;37732;53.106;7.030;2022-10-31T05:13:45;9.50;99.90
51655;DHT22;37732;53.106;7.030;2022-10-31T05:16:11;9.50;99.90
51655;DHT22;37732;53.106;7.030;2022-10-31T05:18:37;9.50;99.90
51655;DHT22;37732;53.106;7.030;2022-10-31T05:21:02;9.40;99.90
51655;DHT22;37732;53.106;7.030;2022-10-31T05:23:28;9.40;99.90
51655;DHT22;37732;53.106;7.030;2022-10-31T05:25:54;9.30;99.90
51655;DHT22;37732;53.106;7.030;2022-10-31T05:28:20;9.30;99.90
51655;DHT22;37732;53.106;7.030;2022-10-31T05:30:45;9.50;99.90
51655;DHT22;37732;53.106;7.030;2022-10-31T05:33:11;9.30;99.90
51655;DHT22;37732;53.106;7.030;2022-10-31T05:35:37;9.30;99.90
51655;DHT22;37732;53.106;7.030;2022-10-31T05:38:03;9.60;99.90
51655;DHT22;37732;53.106;7.030;2022-10-31T05:40:29;9.20;99.90
51655;DHT22;37732;53.106;7.030;2022-10-31T05:42:56;9.20;99.90
51655;DHT22;37732;53.106;7.030;2022-10-31T05:45:24;9.20;99.90
51655;DHT22;37732;53.106;7.030;2022-10-31T05:47:51;9.20;99.90
51655;DHT22;37732;53.106;7.030;2022-10-31T05:50:17;9.10;99.90
51655;DHT22;37732;53.106;7.030;2022-10-31T05:52:43;9.20;99.90
51655;DHT22;37732;53.106;7.030;2022-10-31T05:55:09;9.10;99.90
51655;DHT22;37732;53.106;7.030;2022-10-31T05:57:35;8.90;99.90
51655;DHT22;37732;53.106;7.030;2022-10-31T06:00:01;9.00;99.90
51655;DHT22;37732;53.106;7.030;2022-10-31T06:02:26;9.00;99.90
51655;DHT22;37732;53.106;7.030;2022-10-31T06:04:53;9.00;99.90
51655;DHT22;37732;53.106;7.030;2022-10-31T06:07:18;8.90;99.90
51655;DHT22;37732;53.106;7.030;2022-10-31T06:21:55;9.00;99.90
51655;DHT22;37732;53.106;7.030;2022-10-31T06:24:21;9.10;99.90
51655;DHT22;37732;53.106;7.030;2022-10-31T06:26:47;8.90;99.90
51655;DHT22;37732;53.106;7.030;2022-10-31T06:29:13;8.90;99.90
51655;DHT22;37732;53.106;7.030;2022-10-31T06:31:39;8.90;99.90
51655;DHT22;37732;53.106;7.030;2022-10-31T06:34:04;8.90;99.90
51655;DHT22;37732;53.106;7.030;2022-10-31T06:36:30;8.90;99.90
51655;DHT22;37732;53.106;7.030;2022-10-31T06:38:56;8.90;99.90
51655;DHT22;37732;53.106;7.030;2022-10-31T06:41:22;8.90;99.90
51655;DHT22;37732;53.106;7.030;2022-10-31T06:43:48;8.90;99.90
51655;DHT22;37732;53.106;7.030;2022-10-31T06:46:14;8.90;99.90
51655;DHT22;37732;53.106;7.030;2022-10-31T06:48:43;9.10;99.90
51655;DHT22;37732;53.106;7.030;2022-10-31T06:51:08;9.10;99.90
51655;DHT22;37732;53.106;7.030;2022-10-31T06:53:34;9.20;99.90
51655;DHT22;37732;53.106;7.030;2022-10-31T06:56:00;8.90;99.90
51655;DHT22;37732;53.106;7.030;2022-10-31T06:58:26;9.00;99.90
51655;DHT22;37732;53.106;7.030;2022-10-31T07:00:52;9.00;99.90
51655;DHT22;37732;53.106;7.030;2022-10-31T07:03:18;9.30;99.90
51655;DHT22;37732;53.106;7.030;2022-10-31T07:05:44;9.00;99.90
51655;DHT22;37732;53.106;7.030;2022-10-31T07:08:11;9.00;99.90
51655;DHT22;37732;53.106;7.030;2022-10-31T07:10:39;9.10;99.90
51655;DHT22;37732;53.106;7.030;2022-10-31T07:13:09;9.60;99.90
51655;DHT22;37732;53.106;7.030;2022-10-31T07:15:37;9.10;99.90
51655;DHT22;37732;53.106;7.030;2022-10-31T07:18:04;9.10;99.90
51655;DHT22;37732;53.106;7.030;2022-10-31T07:20:31;9.10;99.90
51655;DHT22;37732;53.106;7.030;2022-10-31T07:22:57;9.10;99.90
51655;DHT22;37732;53.106;7.030;2022-10-31T07:25:23;9.10;99.90
51655;DHT22;37732;53.106;7.030;2022-10-31T07:27:50;9.10;99.90
51655;DHT22;37732;53.106;7.030;2022-10-31T07:30:16;9.10;99.90
51655;DHT22;37732;53.106;7.030;2022-10-31T07:32:46;9.10;99.90
51655;DHT22;37732;53.106;7.030;2022-10-31T07:35:18;9.00;99.90
51655;DHT22;37732;53.106;7.030;2022-10-31T07:37:45;9.00;99.90
51655;DHT22;37732;53.106;7.030;2022-10-31T07:40:12;9.00;99.90
51655;DHT22;37732;53.106;7.030;2022-10-31T07:42:38;9.00;99.90
51655;DHT22;37732;53.106;7.030;2022-10-31T07:45:06;9.00;99.90
51655;DHT22;37732;53.106;7.030;2022-10-31T07:47:42;9.10;99.90
51655;DHT22;37732;53.106;7.030;2022-10-31T07:50:10;9.10;99.90
51655;DHT22;37732;53.106;7.030;2022-10-31T07:52:37;9.20;99.90
51655;DHT22;37732;53.106;7.030;2022-10-31T07:55:04;9.20;99.90
51655;DHT22;37732;53.106;7.030;2022-10-31T07:57:30;9.30;99.90
51655;DHT22;37732;53.106;7.030;2022-10-31T07:59:55;9.40;99.90
51655;DHT22;37732;53.106;7.030;2022-10-31T08:02:21;9.40;99.90
51655;DHT22;37732;53.106;7.030;2022-10-31T08:04:47;9.50;99.90
51655;DHT22;37732;53.106;7.030;2022-10-31T08:07:14;9.50;99.90
51655;DHT22;37732;53.106;7.030;2022-10-31T08:09:39;9.60;99.90
51655;DHT22;37732;53.106;7.030;2022-10-31T08:12:05;9.70;99.90
51655;DHT22;37732;53.106;7.030;2022-10-31T08:14:31;9.80;99.90
51655;DHT22;37732;53.106;7.030;2022-10-31T08:16:57;9.90;99.90
51655;DHT22;37732;53.106;7.030;2022-10-31T08:19:22;10.10;99.90
51655;DHT22;37732;53.106;7.030;2022-10-31T08:21:52;10.10;99.90
51655;DHT22;37732;53.106;7.030;2022-10-31T08:24:21;10.20;99.90
51655;DHT22;37732;53.106;7.030;2022-10-31T08:26:47;10.50;99.90
51655;DHT22;37732;53.106;7.030;2022-10-31T08:29:13;10.40;99.90
51655;DHT22;37732;53.106;7.030;2022-10-31T08:31:41;10.50;99.90
51655;DHT22;37732;53.106;7.030;2022-10-31T08:34:07;10.60;99.90
51655;DHT22;37732;53.106;7.030;2022-10-31T08:36:33;10.70;99.90
51655;DHT22;37732;53.106;7.030;2022-10-31T08:38:58;10.80;99.90
51655;DHT22;37732;53.106;7.030;2022-10-31T08:41:24;10.90;99.90
51655;DHT22;37732;53.106;7.030;2022-10-31T08:43:50;11.00;99.90
51655;DHT22;37732;53.106;7.030;2022-10-31T08:46:16;11.00;99.90
51655;DHT22;37732;53.106;7.030;2022-10-31T08:48:42;11.00;99.90
51655;DHT22;37732;53.106;7.030;2022-10-31T08:51:09;11.10;99.90
51655;DHT22;37732;53.106;7.030;2022-10-31T08:53:35;11.20;99.90
51655;DHT22;37732;53.106;7.030;2022-10-31T08:56:01;11.20;99.90
51655;DHT22;37732;53.106;7.030;2022-10-31T08:58:27;11.30;99.90
51655;DHT22;37732;53.106;7.030;2022-10-31T09:00:54;11.40;99.90
51655;DHT22;37732;53.106;7.030;2022-10-31T09:03:26;11.40;99.90
51655;DHT22;37732;53.106;7.030;2022-10-31T09:05:57;11.60;99.90
51655;DHT22;37732;53.106;7.030;2022-10-31T09:08:23;11.70;99.90
51655;DHT22;37732;53.106;7.030;2022-10-31T09:10:49;11.70;99.90
51655;DHT22;37732;53.106;7.030;2022-10-31T09:13:18;11.80;99.90
51655;DHT22;37732;53.106;7.030;2022-10-31T09:15:46;12.00;99.90
51655;DHT22;37732;53.106;7.030;2022-10-31T09:18:13;12.10;99.90
51655;DHT22;37732;53.106;7.030;2022-10-31T09:20:40;12.30;99.90
51655;DHT22;37732;53.106;7.030;2022-10-31T09:23:10;12.50;99.90
51655;DHT22;37732;53.106;7.030;2022-10-31T09:25:37;12.60;99.90
51655;DHT22;37732;53.106;7.030;2022-10-31T09:28:05;12.70;99.90
51655;DHT22;37732;53.106;7.030;2022-10-31T09:30:33;12.70;99.90
51655;DHT22;37732;53.106;7.030;2022-10-31T09:33:01;12.80;99.90
51655;DHT22;37732;53.106;7.030;2022-10-31T09:35:27;12.90;99.90
51655;DHT22;37732;53.106;7.030;2022-10-31T09:37:55;13.00;99.90
51655;DHT22;37732;53.106;7.030;2022-10-31T09:40:21;13.10;99.90
51655;DHT22;37732;53.106;7.030;2022-10-31T09:50:45;13.40;99.90
51655;DHT22;37732;53.106;7.030;2022-10-31T09:55:57;13.70;99.90
51655;DHT22;37732;53.106;7.030;2022-10-31T09:58:26;13.80;99.90
51655;DHT22;37732;53.106;7.030;2022-10-31T10:00:55;13.90;99.90
51655;DHT22;37732;53.106;7.030;2022-10-31T10:08:42;14.10;99.90
51655;DHT22;37732;53.106;7.030;2022-10-31T10:14:04;14.20;99.90
51655;DHT22;37732;53.106;7.030;2022-10-31T10:30:11;14.30;99.90
51655;DHT22;37732;53.106;7.030;2022-10-31T10:32:49;14.40;99.90
51655;DHT22;37732;53.106;7.030;2022-10-31T10:36:04;14.30;99.90
51655;DHT22;37732;53.106;7.030;2022-10-31T10:41:19;14.40;99.90
51655;DHT22;37732;53.106;7.030;2022-10-31T10:43:45;14.30;99.90
51655;DHT22;37732;53.106;7.030;2022-10-31T10:57:42;14.80;99.90
51655;DHT22;37732;53.106;7.030;2022-10-31T11:00:18;14.90;99.90
51655;DHT22;37732;53.106;7.030;2022-10-31T11:02:44;14.80;99.90
51655;DHT22;37732;53.106;7.030;2022-10-31T11:05:22;14.80;99.90
51655;DHT22;37732;53.106;7.030;2022-10-31T11:07:48;15.00;99.90
51655;DHT22;37732;53.106;7.030;2022-10-31T11:10:15;15.00;99.90
51655;DHT22;37732;53.106;7.030;2022-10-31T11:12:43;15.00;99.90
51655;DHT22;37732;53.106;7.030;2022-10-31T11:15:23;15.00;99.90
51655;DHT22;37732;53.106;7.030;2022-10-31T11:17:52;15.10;99.90
51655;DHT22;37732;53.106;7.030;2022-10-31T11:22:47;15.00;99.90
51655;DHT22;37732;53.106;7.030;2022-10-31T11:27:45;15.00;99.90
51655;DHT22;37732;53.106;7.030;2022-10-31T11:30:13;15.00;99.90
51655;DHT22;37732;53.106;7.030;2022-10-31T11:32:49;15.10;99.90
51655;DHT22;37732;53.106;7.030;2022-10-31T11:35:17;15.20;99.90
51655;DHT22;37732;53.106;7.030;2022-10-31T11:37:45;15.30;99.90
51655;DHT22;37732;53.106;7.030;2022-10-31T11:40:18;15.50;99.90
51655;DHT22;37732;53.106;7.030;2022-10-31T11:42:45;15.50;99.90
51655;DHT22;37732;53.106;7.030;2022-10-31T11:45:15;15.50;99.90
51655;DHT22;37732;53.106;7.030;2022-10-31T11:47:44;15.60;99.90
51655;DHT22;37732;53.106;7.030;2022-10-31T11:50:25;15.60;99.90
51655;DHT22;37732;53.106;7.030;2022-10-31T11:52:53;15.60;99.90
51655;DHT22;37732;53.106;7.030;2022-10-31T11:55:35;15.80;99.90
51655;DHT22;37732;53.106;7.030;2022-10-31T11:58:02;15.70;99.90
51655;DHT22;37732;53.106;7.030;2022-10-31T12:00:34;15.70;99.90
51655;DHT22;37732;53.106;7.030;2022-10-31T12:03:12;15.60;99.90
51655;DHT22;37732;53.106;7.030;2022-10-31T12:05:42;15.60;99.90
51655;DHT22;37732;53.106;7.030;2022-10-31T12:08:12;15.70;99.90
51655;DHT22;37732;53.106;7.030;2022-10-31T12:22:37;15.80;99.90
51655;DHT22;37732;53.106;7.030;2022-10-31T12:25:44;15.90;99.90
51655;DHT22;37732;53.106;7.030;2022-10-31T12:39:23;16.00;99.90
51655;DHT22;37732;53.106;7.030;2022-10-31T12:53:01;15.80;99.90
51655;DHT22;37732;53.106;7.030;2022-10-31T12:55:41;15.80;99.90
51655;DHT22;37732;53.106;7.030;2022-10-31T13:03:42;15.70;99.90
51655;DHT22;37732;53.106;7.030;2022-10-31T13:06:16;15.70;99.90
51655;DHT22;37732;53.106;7.030;2022-10-31T13:08:57;15.70;99.90
51655;DHT22;37732;53.106;7.030;2022-10-31T13:11:24;15.70;99.90
51655;DHT22;37732;53.106;7.030;2022-10-31T13:14:05;15.70;99.90
51655;DHT22;37732;53.106;7.030;2022-10-31T13:16:43;15.70;99.90
51655;DHT22;37732;53.106;7.030;2022-10-31T13:19:20;15.70;99.90
51655;DHT22;37732;53.106;7.030;2022-10-31T13:27:09;15.60;99.90
51655;DHT22;37732;53.106;7.030;2022-10-31T13:29:42;15.60;99.90
51655;DHT22;37732;53.106;7.030;2022-10-31T13:32:10;15.60;99.90
51655;DHT22;37732;53.106;7.030;2022-10-31T13:34:44;15.50;99.90
51655;DHT22;37732;53.106;7.030;2022-10-31T13:40:14;15.60;99.90
51655;DHT22;37732;53.106;7.030;2022-10-31T13:45:24;15.60;99.90
51655;DHT22;37732;53.106;7.030;2022-10-31T13:50:43;15.60;99.90
51655;DHT22;37732;53.106;7.030;2022-10-31T13:53:18;15.70;99.90
51655;DHT22;37732;53.106;7.030;2022-10-31T13:55:48;15.70;99.90
51655;DHT22;37732;53.106;7.030;2022-10-31T13:58:27;15.70;99.90
51655;DHT22;37732;53.106;7.030;2022-10-31T14:01:19;15.80;99.90
51655;DHT22;37732;53.106;7.030;2022-10-31T14:04:07;15.80;99.90
51655;DHT22;37732;53.106;7.030;2022-10-31T14:09:41;15.80;99.90
51655;DHT22;37732;53.106;7.030;2022-10-31T14:14:55;15.90;99.90
51655;DHT22;37732;53.106;7.030;2022-10-31T14:17:26;15.80;99.90
51655;DHT22;37732;53.106;7.030;2022-10-31T14:20:01;15.80;99.90
51655;DHT22;37732;53.106;7.030;2022-10-31T14:22:33;15.80;99.90
51655;DHT22;37732;53.106;7.030;2022-10-31T14:24:59;15.80;99.90
51655;DHT22;37732;53.106;7.030;2022-10-31T14:29:53;15.80;99.90
51655;DHT22;37732;53.106;7.030;2022-10-31T14:32:24;15.80;99.90
51655;DHT22;37732;53.106;7.030;2022-10-31T14:34:54;15.80;99.90
51655;DHT22;37732;53.106;7.030;2022-10-31T14:40:15;15.70;99.90
51655;DHT22;37732;53.106;7.030;2022-10-31T14:45:21;15.60;99.90
51655;DHT22;37732;53.106;7.030;2022-10-31T14:47:56;15.60;99.90
51655;DHT22;37732;53.106;7.030;2022-10-31T14:53:33;15.50;99.90
51655;DHT22;37732;53.106;7.030;2022-10-31T14:56:00;15.50;99.90
51655;DHT22;37732;53.106;7.030;2022-10-31T14:58:45;15.40;99.90
51655;DHT22;37732;53.106;7.030;2022-10-31T15:01:23;15.40;99.90
51655;DHT22;37732;53.106;7.030;2022-10-31T15:03:50;15.40;99.90
51655;DHT22;37732;53.106;7.030;2022-10-31T15:06:21;15.30;99.90
51655;DHT22;37732;53.106;7.030;2022-10-31T15:08:52;15.30;99.90
51655;DHT22;37732;53.106;7.030;2022-10-31T15:11:23;15.30;99.90
51655;DHT22;37732;53.106;7.030;2022-10-31T15:13:52;15.20;99.90
51655;DHT22;37732;53.106;7.030;2022-10-31T15:16:27;15.20;99.90
51655;DHT22;37732;53.106;7.030;2022-10-31T15:21:23;15.20;99.90
51655;DHT22;37732;53.106;7.030;2022-10-31T15:23:52;15.10;99.90
51655;DHT22;37732;53.106;7.030;2022-10-31T15:26:20;15.10;99.90
51655;DHT22;37732;53.106;7.030;2022-10-31T15:29:01;15.10;99.90
51655;DHT22;37732;53.106;7.030;2022-10-31T15:31:28;15.00;99.90
51655;DHT22;37732;53.106;7.030;2022-10-31T15:34:03;15.00;99.90
51655;DHT22;37732;53.106;7.030;2022-10-31T15:36:29;14.90;99.90
51655;DHT22;37732;53.106;7.030;2022-10-31T15:38:56;14.90;99.90
51655;DHT22;37732;53.106;7.030;2022-10-31T15:41:33;14.90;99.90
51655;DHT22;37732;53.106;7.030;2022-10-31T15:44:04;14.80;99.90
51655;DHT22;37732;53.106;7.030;2022-10-31T15:46:30;14.80;99.90
51655;DHT22;37732;53.106;7.030;2022-10-31T15:48:57;14.70;99.90
51655;DHT22;37732;53.106;7.030;2022-10-31T15:51:28;14.70;99.90
51655;DHT22;37732;53.106;7.030;2022-10-31T15:53:55;14.60;99.90
51655;DHT22;37732;53.106;7.030;2022-10-31T15:56:24;14.60;99.90
51655;DHT22;37732;53.106;7.030;2022-10-31T15:58:52;14.60;99.90
51655;DHT22;37732;53.106;7.030;2022-10-31T16:01:21;14.50;99.90
51655;DHT22;37732;53.106;7.030;2022-10-31T16:04:04;14.50;99.90
51655;DHT22;37732;53.106;7.030;2022-10-31T16:06:32;14.50;99.90
51655;DHT22;37732;53.106;7.030;2022-10-31T16:08:58;14.40;99.90
51655;DHT22;37732;53.106;7.030;2022-10-31T16:14:14;14.30;99.90
51655;DHT22;37732;53.106;7.030;2022-10-31T16:16:49;14.30;99.90
51655;DHT22;37732;53.106;7.030;2022-10-31T16:19:35;14.20;99.90
51655;DHT22;37732;53.106;7.030;2022-10-31T16:22:13;14.20;99.90
51655;DHT22;37732;53.106;7.030;2022-10-31T16:24:59;14.20;99.90
51655;DHT22;37732;53.106;7.030;2022-10-31T16:27:29;14.10;99.90
51655;DHT22;37732;53.106;7.030;2022-10-31T16:29:57;14.10;99.90
51655;DHT22;37732;53.106;7.030;2022-10-31T16:32:37;14.10;99.90
51655;DHT22;37732;53.106;7.030;2022-10-31T16:35:23;14.00;99.90
51655;DHT22;37732;53.106;7.030;2022-10-31T16:37:51;14.00;99.90
51655;DHT22;37732;53.106;7.030;2022-10-31T16:40:17;13.90;99.90
51655;DHT22;37732;53.106;7.030;2022-10-31T16:42:44;13.90;99.90
51655;DHT22;37732;53.106;7.030;2022-10-31T16:45:24;13.90;99.90
51655;DHT22;37732;53.106;7.030;2022-10-31T16:47:50;13.90;99.90
51655;DHT22;37732;53.106;7.030;2022-10-31T16:50:20;13.80;99.90
51655;DHT22;37732;53.106;7.030;2022-10-31T16:52:46;13.80;99.90
51655;DHT22;37732;53.106;7.030;2022-10-31T16:55:17;13.80;99.90
51655;DHT22;37732;53.106;7.030;2022-10-31T16:57:48;13.80;99.90
51655;DHT22;37732;53.106;7.030;2022-10-31T17:00:23;13.80;99.90
51655;DHT22;37732;53.106;7.030;2022-10-31T17:02:54;13.70;99.90
51655;DHT22;37732;53.106;7.030;2022-10-31T17:05:22;13.70;99.90
51655;DHT22;37732;53.106;7.030;2022-10-31T17:07:56;13.70;99.90
51655;DHT22;37732;53.106;7.030;2022-10-31T17:10:23;13.70;99.90
51655;DHT22;37732;53.106;7.030;2022-10-31T17:12:49;13.70;99.90
51655;DHT22;37732;53.106;7.030;2022-10-31T17:15:20;13.70;99.90
51655;DHT22;37732;53.106;7.030;2022-10-31T17:17:47;13.70;99.90
51655;DHT22;37732;53.106;7.030;2022-10-31T17:20:28;13.70;99.90
51655;DHT22;37732;53.106;7.030;2022-10-31T17:22:55;13.70;99.90
51655;DHT22;37732;53.106;7.030;2022-10-31T17:25:25;13.70;99.90
51655;DHT22;37732;53.106;7.030;2022-10-31T17:27:52;13.70;99.90
51655;DHT22;37732;53.106;7.030;2022-10-31T17:30:19;13.70;99.90
51655;DHT22;37732;53.106;7.030;2022-10-31T17:32:46;13.70;99.90
51655;DHT22;37732;53.106;7.030;2022-10-31T17:35:13;13.70;99.90
51655;DHT22;37732;53.106;7.030;2022-10-31T17:37:41;13.70;99.90
51655;DHT22;37732;53.106;7.030;2022-10-31T17:40:12;13.70;99.90
51655;DHT22;37732;53.106;7.030;2022-10-31T17:42:38;13.70;99.90
51655;DHT22;37732;53.106;7.030;2022-10-31T17:45:05;13.70;99.90
51655;DHT22;37732;53.106;7.030;2022-10-31T17:47:33;13.70;99.90
51655;DHT22;37732;53.106;7.030;2022-10-31T17:50:00;13.70;99.90
51655;DHT22;37732;53.106;7.030;2022-10-31T17:52:26;13.80;99.90
51655;DHT22;37732;53.106;7.030;2022-10-31T17:54:52;13.80;99.90
51655;DHT22;37732;53.106;7.030;2022-10-31T17:57:18;13.80;99.90
51655;DHT22;37732;53.106;7.030;2022-10-31T17:59:44;13.80;99.90
51655;DHT22;37732;53.106;7.030;2022-10-31T18:02:10;13.80;99.90
51655;DHT22;37732;53.106;7.030;2022-10-31T18:04:36;13.80;99.90
51655;DHT22;37732;53.106;7.030;2022-10-31T18:07:04;13.80;99.90
51655;DHT22;37732;53.106;7.030;2022-10-31T18:09:30;13.80;99.90
51655;DHT22;37732;53.106;7.030;2022-10-31T18:11:55;13.80;99.90
51655;DHT22;37732;53.106;7.030;2022-10-31T18:14:21;13.80;99.90
51655;DHT22;37732;53.106;7.030;2022-10-31T18:16:47;13.80;99.90
51655;DHT22;37732;53.106;7.030;2022-10-31T18:19:14;13.80;99.90
51655;DHT22;37732;53.106;7.030;2022-10-31T18:21:41;13.80;99.90
51655;DHT22;37732;53.106;7.030;2022-10-31T18:24:08;13.90;99.90
51655;DHT22;37732;53.106;7.030;2022-10-31T18:26:35;13.80;99.90
51655;DHT22;37732;53.106;7.030;2022-10-31T18:29:01;13.80;99.90
51655;DHT22;37732;53.106;7.030;2022-10-31T18:31:26;13.80;99.90
51655;DHT22;37732;53.106;7.030;2022-10-31T18:33:53;13.90;99.90
51655;DHT22;37732;53.106;7.030;2022-10-31T18:36:20;13.80;99.90
51655;DHT22;37732;53.106;7.030;2022-10-31T18:38:46;13.80;99.90
51655;DHT22;37732;53.106;7.030;2022-10-31T18:41:13;13.80;99.90
51655;DHT22;37732;53.106;7.030;2022-10-31T18:43:39;13.80;99.90
51655;DHT22;37732;53.106;7.030;2022-10-31T18:46:10;13.80;99.90
51655;DHT22;37732;53.106;7.030;2022-10-31T18:48:39;13.80;99.90
51655;DHT22;37732;53.106;7.030;2022-10-31T18:51:08;13.80;99.90
51655;DHT22;37732;53.106;7.030;2022-10-31T18:53:35;13.80;99.90